Time;durP1;ratioP1;P1;durP2;ratioP2;P2;SDS_P1;SDS_P2;PMS_P1;PMS_P2;Temp;Humidity;BMP_temperature;BMP_pressure;BME280_temperature;BME280_humidity;BME280_pressure;Samples;Min_cycle;Max_cycle;Signal;HPM_P1;HPM_P2
2022/10/08 00:00:16;;;;;;;;;;;11.70;79.00;;;;;;5059079;28;19952;-80
2022/10/08 00:02:42;;;;;;;;;;;11.80;79.60;;;;;;5042019;28;19942;-80
2022/10/08 00:05:07;;;;;;;;;;;11.80;78.90;;;;;;5058822;28;20360;-79
2022/10/08 00:07:33;;;;;;;;;;;11.80;79.20;;;;;;5054327;28;19919;-79
2022/10/08 00:09:58;;;;;;;;;;;11.90;78.70;;;;;;5037678;28;19992;-80
2022/10/08 00:12:24;;;;;;;;;;;11.90;78.60;;;;;;5049398;28;19924;-79
2022/10/08 00:14:49;;;;;;;;;;;11.80;78.90;;;;;;5058619;28;19916;-80
2022/10/08 00:17:15;;;;;;;;;;;11.80;78.70;;;;;;5040239;28;20491;-79
2022/10/08 00:19:40;;;;;;;;;;;11.80;78.90;;;;;;5058198;28;19916;-79
2022/10/08 00:22:06;;;;;;;;;;;11.80;78.90;;;;;;5040262;28;19916;-80
2022/10/08 00:24:31;;;;;;;;;;;11.70;78.90;;;;;;5058663;28;19962;-79
2022/10/08 00:26:59;;;;;;;;;;;11.70;79.20;;;;;;5039459;28;19921;-79
2022/10/08 00:29:24;;;;;;;;;;;11.60;79.80;;;;;;5039364;28;19936;-79
2022/10/08 00:31:50;;;;;;;;;;;11.60;80.00;;;;;;5039395;28;19916;-80
2022/10/08 00:34:17;;;;;;;;;;;11.60;79.70;;;;;;5057906;28;19909;-79
2022/10/08 00:36:43;;;;;;;;;;;11.60;79.60;;;;;;5057982;28;19931;-79
2022/10/08 00:39:13;;;;;;;;;;;11.70;79.40;;;;;;5039075;28;20334;-79
2022/10/08 00:41:39;;;;;;;;;;;11.70;79.40;;;;;;5057212;28;19980;-80
2022/10/08 00:44:23;;;;;;;;;;;11.80;79.10;;;;;;5058126;28;19913;-79
2022/10/08 00:46:49;;;;;;;;;;;11.60;79.00;;;;;;5038222;28;19923;-80
2022/10/08 00:49:17;;;;;;;;;;;11.60;79.80;;;;;;5037880;28;19913;-79
2022/10/08 00:51:44;;;;;;;;;;;11.60;79.50;;;;;;5036806;28;19923;-79
2022/10/08 00:54:11;;;;;;;;;;;11.50;79.70;;;;;;5022864;28;19917;-79
2022/10/08 00:56:37;;;;;;;;;;;11.60;80.20;;;;;;5057124;28;19913;-79
2022/10/08 00:59:03;;;;;;;;;;;11.50;80.20;;;;;;5051434;28;19913;-80
2022/10/08 01:01:29;;;;;;;;;;;11.50;80.30;;;;;;5027564;28;19913;-80
2022/10/08 01:03:54;;;;;;;;;;;11.50;80.20;;;;;;5037598;28;19913;-79
2022/10/08 01:06:35;;;;;;;;;;;11.60;79.90;;;;;;5037227;28;19968;-80
2022/10/08 01:09:07;;;;;;;;;;;11.60;80.00;;;;;;5051884;28;19917;-79
2022/10/08 01:11:33;;;;;;;;;;;11.60;79.90;;;;;;5052188;28;20013;-79
2022/10/08 01:14:19;;;;;;;;;;;11.50;80.00;;;;;;5050632;28;19909;-79
2022/10/08 01:16:48;;;;;;;;;;;11.50;80.10;;;;;;5049343;28;20145;-79
2022/10/08 01:19:16;;;;;;;;;;;11.50;80.40;;;;;;5048302;28;19932;-80
2022/10/08 01:21:54;;;;;;;;;;;11.50;80.40;;;;;;5031271;28;19921;-79
2022/10/08 01:27:38;;;;;;;;;;;11.50;80.10;;;;;;5043550;28;19928;-78
2022/10/08 01:30:06;;;;;;;;;;;11.50;80.00;;;;;;5035816;28;19923;-78
2022/10/08 01:32:38;;;;;;;;;;;11.50;80.40;;;;;;5049646;28;19912;-78
2022/10/08 01:35:08;;;;;;;;;;;11.50;80.60;;;;;;5049384;28;19920;-78
2022/10/08 01:37:36;;;;;;;;;;;11.50;80.30;;;;;;5032282;28;19938;-78
2022/10/08 01:40:04;;;;;;;;;;;11.50;80.30;;;;;;5050549;28;19914;-78
2022/10/08 01:42:31;;;;;;;;;;;11.40;80.30;;;;;;5037769;28;20004;-78
2022/10/08 01:45:02;;;;;;;;;;;11.50;80.10;;;;;;5024171;28;20299;-78
2022/10/08 01:47:29;;;;;;;;;;;11.50;80.20;;;;;;5031778;28;19920;-78
2022/10/08 01:50:13;;;;;;;;;;;11.50;80.00;;;;;;5049632;28;19912;-78
2022/10/08 01:52:46;;;;;;;;;;;11.60;80.20;;;;;;5056901;28;20265;-78
2022/10/08 01:55:33;;;;;;;;;;;11.50;80.30;;;;;;5029672;28;19943;-78
2022/10/08 01:58:01;;;;;;;;;;;11.60;79.90;;;;;;5047086;28;19959;-78
2022/10/08 02:00:27;;;;;;;;;;;11.50;80.20;;;;;;5050288;28;19960;-78
2022/10/08 02:02:54;;;;;;;;;;;11.60;80.10;;;;;;5049079;28;19913;-78
2022/10/08 02:05:21;;;;;;;;;;;11.60;80.60;;;;;;5022955;28;20339;-78
2022/10/08 02:07:48;;;;;;;;;;;11.50;80.30;;;;;;5030318;28;19924;-78
2022/10/08 02:10:16;;;;;;;;;;;11.60;79.80;;;;;;5023808;28;19917;-78
2022/10/08 02:12:42;;;;;;;;;;;11.70;79.40;;;;;;5034846;28;20300;-78
2022/10/08 02:15:10;;;;;;;;;;;11.80;79.00;;;;;;5058118;28;19919;-78
2022/10/08 02:17:40;;;;;;;;;;;11.80;79.00;;;;;;5040581;28;19909;-78
2022/10/08 02:20:26;;;;;;;;;;;11.90;78.80;;;;;;5037419;28;19913;-78
2022/10/08 02:22:57;;;;;;;;;;;11.90;78.60;;;;;;5049032;28;19987;-78
2022/10/08 02:25:23;;;;;;;;;;;11.90;78.60;;;;;;5025511;28;19956;-78
2022/10/08 02:27:49;;;;;;;;;;;12.00;78.50;;;;;;5026164;28;19917;-78
2022/10/08 02:30:15;;;;;;;;;;;12.00;78.50;;;;;;5041253;28;19918;-78
2022/10/08 02:32:53;;;;;;;;;;;12.00;79.00;;;;;;5054097;28;19945;-78
2022/10/08 02:35:24;;;;;;;;;;;12.10;78.60;;;;;;5036032;28;19909;-78
2022/10/08 02:38:10;;;;;;;;;;;12.20;78.10;;;;;;5057263;28;19913;-78
2022/10/08 02:40:39;;;;;;;;;;;12.20;78.10;;;;;;5042532;28;19956;-78
2022/10/08 02:43:07;;;;;;;;;;;12.40;77.60;;;;;;5026658;28;20400;-78
2022/10/08 02:45:38;;;;;;;;;;;12.30;77.70;;;;;;5061846;28;19956;-78
2022/10/08 02:48:10;;;;;;;;;;;12.30;78.00;;;;;;5043688;28;19920;-78
2022/10/08 02:50:38;;;;;;;;;;;12.50;77.60;;;;;;5054815;28;19995;-78
2022/10/08 02:53:04;;;;;;;;;;;12.40;77.80;;;;;;5032276;28;19920;-78
2022/10/08 02:55:29;;;;;;;;;;;12.40;77.80;;;;;;5053749;28;19913;-78
2022/10/08 02:58:00;;;;;;;;;;;12.40;78.00;;;;;;5041833;28;19976;-78
2022/10/08 03:00:28;;;;;;;;;;;12.50;78.10;;;;;;5045901;28;20011;-81
2022/10/08 03:02:56;;;;;;;;;;;12.60;77.60;;;;;;5032388;28;19916;-81
2022/10/08 03:05:22;;;;;;;;;;;12.60;77.70;;;;;;5031942;28;19913;-81
2022/10/08 03:07:49;;;;;;;;;;;12.60;77.80;;;;;;5029202;28;19917;-78
2022/10/08 03:10:15;;;;;;;;;;;12.60;77.90;;;;;;5043137;28;19921;-78
2022/10/08 03:12:40;;;;;;;;;;;12.60;78.10;;;;;;5024370;28;19948;-79
2022/10/08 03:15:08;;;;;;;;;;;12.60;78.30;;;;;;5034046;28;19958;-79
2022/10/08 03:17:36;;;;;;;;;;;12.70;79.70;;;;;;5033928;28;19921;-79
2022/10/08 03:20:03;;;;;;;;;;;12.60;80.20;;;;;;5032562;28;19912;-78
2022/10/08 03:22:29;;;;;;;;;;;12.60;80.80;;;;;;5028032;28;20389;-78
2022/10/08 03:24:54;;;;;;;;;;;12.60;81.30;;;;;;5038776;28;19967;-78
2022/10/08 03:27:20;;;;;;;;;;;12.60;81.90;;;;;;5042213;28;19925;-79
2022/10/08 03:29:45;;;;;;;;;;;12.50;82.20;;;;;;5017267;28;19909;-78
2022/10/08 03:32:11;;;;;;;;;;;12.50;82.80;;;;;;5040239;28;19928;-78
2022/10/08 03:34:36;;;;;;;;;;;12.50;83.10;;;;;;5054544;28;19915;-78
2022/10/08 03:37:02;;;;;;;;;;;12.40;83.40;;;;;;5044198;28;19920;-78
2022/10/08 03:39:27;;;;;;;;;;;12.40;84.50;;;;;;5026216;28;19920;-78
2022/10/08 03:41:53;;;;;;;;;;;12.50;84.60;;;;;;5041670;28;20003;-78
2022/10/08 03:44:18;;;;;;;;;;;12.40;85.20;;;;;;5029317;28;19912;-78
2022/10/08 03:46:43;;;;;;;;;;;12.30;85.60;;;;;;5015821;28;19913;-78
2022/10/08 03:49:09;;;;;;;;;;;12.20;86.50;;;;;;5020766;28;19920;-78
2022/10/08 03:51:34;;;;;;;;;;;12.10;86.60;;;;;;5049720;28;20614;-78
2022/10/08 03:54:00;;;;;;;;;;;12.10;86.80;;;;;;5017613;28;20324;-78
2022/10/08 03:56:25;;;;;;;;;;;12.30;86.50;;;;;;5026809;28;19917;-79
2022/10/08 03:58:52;;;;;;;;;;;12.20;86.70;;;;;;5035028;28;20074;-78
2022/10/08 04:01:17;;;;;;;;;;;12.10;86.90;;;;;;5051713;28;19921;-78
2022/10/08 04:03:44;;;;;;;;;;;12.10;87.30;;;;;;5038504;28;19913;-78
2022/10/08 04:06:09;;;;;;;;;;;12.00;87.90;;;;;;5054809;28;19919;-78
2022/10/08 04:08:35;;;;;;;;;;;12.00;88.20;;;;;;5054349;28;20008;-78
2022/10/08 04:11:02;;;;;;;;;;;11.90;88.40;;;;;;5035959;28;19928;-78
2022/10/08 04:13:28;;;;;;;;;;;11.90;88.60;;;;;;5033743;28;19913;-78
2022/10/08 04:15:58;;;;;;;;;;;11.80;88.90;;;;;;5021868;28;19936;-78
2022/10/08 04:18:23;;;;;;;;;;;11.80;89.10;;;;;;5029300;28;19920;-79
2022/10/08 04:20:49;;;;;;;;;;;11.80;89.30;;;;;;5036005;28;19913;-78
2022/10/08 04:23:14;;;;;;;;;;;11.80;89.30;;;;;;5054316;28;19960;-78
2022/10/08 04:25:47;;;;;;;;;;;11.80;89.60;;;;;;5040865;28;20537;-78
2022/10/08 04:28:12;;;;;;;;;;;11.80;89.50;;;;;;5021248;28;19927;-78
2022/10/08 04:30:38;;;;;;;;;;;11.80;89.30;;;;;;5052554;28;19913;-78
2022/10/08 04:33:03;;;;;;;;;;;11.80;89.20;;;;;;5051867;28;19920;-78
2022/10/08 04:35:29;;;;;;;;;;;11.80;89.50;;;;;;5033088;28;20357;-78
2022/10/08 04:37:54;;;;;;;;;;;11.80;89.50;;;;;;5051276;28;19917;-78
2022/10/08 04:40:19;;;;;;;;;;;11.80;89.70;;;;;;5046880;28;19917;-78
2022/10/08 04:42:49;;;;;;;;;;;11.80;89.80;;;;;;5041747;28;19909;-79
2022/10/08 04:45:14;;;;;;;;;;;11.80;89.70;;;;;;5046156;28;20312;-78
2022/10/08 04:47:41;;;;;;;;;;;11.80;89.60;;;;;;5052432;28;19948;-79
2022/10/08 04:50:07;;;;;;;;;;;11.80;89.70;;;;;;5020379;28;19920;-79
2022/10/08 04:52:32;;;;;;;;;;;11.80;89.50;;;;;;5026106;28;19921;-78
2022/10/08 04:54:58;;;;;;;;;;;11.80;89.80;;;;;;5036611;28;19908;-78
2022/10/08 04:57:23;;;;;;;;;;;11.80;89.30;;;;;;5020955;28;19967;-78
2022/10/08 04:59:49;;;;;;;;;;;11.80;89.70;;;;;;5042762;28;19909;-78
2022/10/08 05:02:14;;;;;;;;;;;11.80;89.60;;;;;;5052461;28;19928;-78
2022/10/08 05:04:40;;;;;;;;;;;11.80;89.60;;;;;;5042219;28;19913;-78
2022/10/08 05:07:05;;;;;;;;;;;11.80;89.70;;;;;;5049897;28;20480;-78
2022/10/08 05:09:30;;;;;;;;;;;11.80;89.70;;;;;;5053734;28;19916;-78
2022/10/08 05:11:56;;;;;;;;;;;11.80;89.70;;;;;;5049363;28;19920;-78
2022/10/08 05:14:21;;;;;;;;;;;11.80;89.90;;;;;;5036264;28;19920;-78
2022/10/08 05:16:47;;;;;;;;;;;11.80;89.60;;;;;;5035146;28;20003;-78
2022/10/08 05:19:13;;;;;;;;;;;11.80;89.70;;;;;;5034755;28;20288;-78
2022/10/08 05:21:38;;;;;;;;;;;11.80;89.80;;;;;;5050267;28;20299;-78
2022/10/08 05:24:05;;;;;;;;;;;11.80;89.80;;;;;;5018479;28;19921;-78
2022/10/08 05:26:32;;;;;;;;;;;11.90;89.40;;;;;;5018334;28;19916;-78
2022/10/08 05:28:58;;;;;;;;;;;11.90;89.60;;;;;;5053431;28;19920;-78
2022/10/08 05:31:24;;;;;;;;;;;11.90;89.60;;;;;;5041492;28;19936;-78
2022/10/08 05:33:50;;;;;;;;;;;11.90;89.50;;;;;;5048462;28;20011;-77
2022/10/08 05:36:17;;;;;;;;;;;11.90;89.70;;;;;;5047003;28;19967;-78
2022/10/08 05:38:42;;;;;;;;;;;12.00;89.60;;;;;;5050835;28;19913;-78
2022/10/08 05:41:12;;;;;;;;;;;12.00;89.50;;;;;;5042228;28;20006;-78
2022/10/08 05:43:38;;;;;;;;;;;12.00;89.70;;;;;;5031968;28;19984;-78
2022/10/08 05:46:04;;;;;;;;;;;12.00;89.60;;;;;;5026756;28;20339;-78
2022/10/08 05:48:29;;;;;;;;;;;12.00;89.70;;;;;;5044874;28;19924;-78
2022/10/08 05:50:55;;;;;;;;;;;12.00;89.50;;;;;;5043602;28;20474;-78
2022/10/08 05:53:20;;;;;;;;;;;12.00;89.40;;;;;;5024075;28;20350;-78
2022/10/08 05:55:45;;;;;;;;;;;11.90;89.40;;;;;;5024341;28;19913;-78
2022/10/08 05:58:11;;;;;;;;;;;11.90;89.40;;;;;;5036607;28;19913;-78
2022/10/08 06:00:36;;;;;;;;;;;11.90;89.80;;;;;;5034144;28;20011;-79
2022/10/08 06:03:02;;;;;;;;;;;11.90;89.90;;;;;;5045595;28;20365;-79
2022/10/08 06:05:27;;;;;;;;;;;11.90;89.90;;;;;;5045013;28;19921;-79
2022/10/08 06:07:56;;;;;;;;;;;12.00;89.70;;;;;;5065601;28;19912;-78
2022/10/08 06:10:22;;;;;;;;;;;12.00;89.50;;;;;;5043148;28;19913;-78
2022/10/08 06:12:48;;;;;;;;;;;12.00;89.50;;;;;;5053904;28;19968;-79
2022/10/08 06:15:13;;;;;;;;;;;11.90;89.60;;;;;;5034831;28;19960;-78
2022/10/08 06:17:39;;;;;;;;;;;12.00;89.60;;;;;;5046289;28;19940;-78
2022/10/08 06:20:04;;;;;;;;;;;12.00;89.70;;;;;;5056675;28;19955;-78
2022/10/08 06:22:30;;;;;;;;;;;11.90;89.80;;;;;;5041778;28;19917;-78
2022/10/08 06:24:55;;;;;;;;;;;11.90;89.60;;;;;;5040528;28;19940;-78
2022/10/08 06:27:21;;;;;;;;;;;12.10;89.80;;;;;;5057189;28;20027;-79
2022/10/08 06:29:46;;;;;;;;;;;12.00;89.70;;;;;;5057474;28;19939;-78
2022/10/08 06:32:11;;;;;;;;;;;12.10;89.60;;;;;;5041609;28;19913;-79
2022/10/08 06:34:37;;;;;;;;;;;12.00;89.40;;;;;;5055228;28;19913;-78
2022/10/08 06:37:03;;;;;;;;;;;12.00;89.60;;;;;;5039942;28;19952;-78
2022/10/08 06:39:28;;;;;;;;;;;12.00;89.70;;;;;;5029720;28;19920;-79
2022/10/08 06:41:54;;;;;;;;;;;12.10;89.90;;;;;;5055996;28;20000;-78
2022/10/08 06:44:19;;;;;;;;;;;12.00;89.70;;;;;;5045227;28;20304;-78
2022/10/08 06:46:45;;;;;;;;;;;12.10;89.70;;;;;;5050084;28;20022;-78
2022/10/08 06:49:10;;;;;;;;;;;12.10;89.50;;;;;;5037866;28;19915;-78
2022/10/08 06:51:36;;;;;;;;;;;12.10;89.50;;;;;;5052458;28;19984;-78
2022/10/08 06:54:02;;;;;;;;;;;12.10;89.40;;;;;;5019908;28;19922;-79
2022/10/08 06:56:28;;;;;;;;;;;12.10;89.60;;;;;;5047433;28;19948;-79
2022/10/08 06:58:53;;;;;;;;;;;12.20;89.50;;;;;;5053762;28;19913;-79
2022/10/08 07:01:23;;;;;;;;;;;12.30;89.40;;;;;;5055300;28;19913;-78
2022/10/08 07:03:53;;;;;;;;;;;12.30;89.30;;;;;;5037403;28;19913;-78
2022/10/08 07:06:18;;;;;;;;;;;12.30;88.90;;;;;;5044330;28;19955;-79
2022/10/08 07:08:44;;;;;;;;;;;12.30;88.80;;;;;;5035734;28;19917;-78
2022/10/08 07:11:14;;;;;;;;;;;12.20;88.90;;;;;;5040837;28;19926;-78
2022/10/08 07:13:39;;;;;;;;;;;12.30;88.90;;;;;;5053084;28;20401;-79
2022/10/08 07:16:05;;;;;;;;;;;12.40;89.00;;;;;;5052252;28;20007;-79
2022/10/08 07:18:31;;;;;;;;;;;12.40;88.80;;;;;;5052241;28;20296;-79
2022/10/08 07:20:57;;;;;;;;;;;12.30;88.90;;;;;;5019233;28;19912;-78
2022/10/08 07:23:22;;;;;;;;;;;12.30;89.00;;;;;;5053721;28;19935;-79
2022/10/08 07:25:57;;;;;;;;;;;12.40;89.10;;;;;;5036760;28;19916;-79
2022/10/08 07:28:24;;;;;;;;;;;12.50;89.10;;;;;;5052381;28;19913;-79
2022/10/08 07:30:49;;;;;;;;;;;12.60;88.90;;;;;;5054914;28;19958;-79
2022/10/08 07:33:15;;;;;;;;;;;12.60;88.50;;;;;;5034792;28;19913;-79
2022/10/08 07:35:40;;;;;;;;;;;12.60;88.70;;;;;;5043759;28;20000;-78
2022/10/08 07:38:06;;;;;;;;;;;12.70;88.40;;;;;;5053200;28;19913;-79
2022/10/08 07:40:33;;;;;;;;;;;12.80;88.40;;;;;;5054593;28;19952;-79
2022/10/08 07:42:59;;;;;;;;;;;12.70;88.30;;;;;;5047119;28;19909;-79
2022/10/08 07:45:24;;;;;;;;;;;12.80;88.30;;;;;;5026063;28;19962;-79
2022/10/08 07:47:49;;;;;;;;;;;12.70;88.20;;;;;;5053452;28;19944;-79
2022/10/08 07:50:15;;;;;;;;;;;12.60;88.30;;;;;;5053373;28;19913;-79
2022/10/08 07:52:40;;;;;;;;;;;12.60;88.80;;;;;;5034252;28;19909;-79
2022/10/08 07:55:06;;;;;;;;;;;12.60;88.80;;;;;;5053064;28;19920;-79
2022/10/08 07:57:31;;;;;;;;;;;12.60;88.80;;;;;;5035375;28;19950;-79
2022/10/08 07:59:57;;;;;;;;;;;12.70;88.20;;;;;;5045486;28;19931;-79
2022/10/08 08:02:22;;;;;;;;;;;12.90;87.40;;;;;;5052532;28;20632;-77
2022/10/08 08:04:48;;;;;;;;;;;12.90;87.50;;;;;;5053077;28;19932;-78
2022/10/08 08:07:13;;;;;;;;;;;12.90;87.30;;;;;;5019180;28;19924;-79
2022/10/08 08:09:39;;;;;;;;;;;12.90;87.90;;;;;;5049649;28;19951;-79
2022/10/08 08:12:04;;;;;;;;;;;13.10;87.40;;;;;;5039200;28;20039;-79
2022/10/08 08:14:30;;;;;;;;;;;13.10;86.50;;;;;;5042085;28;19909;-79
2022/10/08 08:16:55;;;;;;;;;;;13.10;86.30;;;;;;5034059;28;19917;-78
2022/10/08 08:19:22;;;;;;;;;;;13.10;86.20;;;;;;5042075;28;19909;-78
2022/10/08 08:21:48;;;;;;;;;;;13.30;85.90;;;;;;5035347;28;19943;-78
2022/10/08 08:24:15;;;;;;;;;;;13.30;86.00;;;;;;5019453;28;20011;-79
2022/10/08 08:26:41;;;;;;;;;;;13.40;86.00;;;;;;5052527;28;20397;-78
2022/10/08 08:29:11;;;;;;;;;;;13.60;84.90;;;;;;5053293;28;19913;-79
2022/10/08 08:31:42;;;;;;;;;;;13.60;85.10;;;;;;5035822;28;20003;-79
2022/10/08 08:34:09;;;;;;;;;;;13.40;85.50;;;;;;5046896;28;20041;-79
2022/10/08 08:36:39;;;;;;;;;;;13.30;85.40;;;;;;5036683;28;20063;-79
2022/10/08 08:39:05;;;;;;;;;;;13.30;85.70;;;;;;5053402;28;20016;-78
2022/10/08 08:41:31;;;;;;;;;;;13.30;86.10;;;;;;5054755;28;20296;-79
2022/10/08 08:44:00;;;;;;;;;;;13.40;86.00;;;;;;5040842;28;19913;-79
2022/10/08 08:46:28;;;;;;;;;;;13.50;85.80;;;;;;5034587;28;19913;-77
2022/10/08 08:48:55;;;;;;;;;;;13.50;85.70;;;;;;5046344;28;19917;-81
2022/10/08 08:51:20;;;;;;;;;;;13.50;85.60;;;;;;5054252;28;19952;-78
2022/10/08 08:53:46;;;;;;;;;;;13.70;85.50;;;;;;5024692;28;19915;-77
2022/10/08 08:56:14;;;;;;;;;;;13.70;84.70;;;;;;5038657;28;19917;-78
2022/10/08 08:59:02;;;;;;;;;;;13.80;84.40;;;;;;5045574;28;19913;-77
2022/10/08 09:01:31;;;;;;;;;;;13.70;84.40;;;;;;5053271;28;19919;-78
2022/10/08 09:04:17;;;;;;;;;;;13.80;84.50;;;;;;5052029;28;19920;-78
2022/10/08 09:06:43;;;;;;;;;;;13.80;84.10;;;;;;5026934;28;20438;-78
2022/10/08 09:09:22;;;;;;;;;;;13.90;84.00;;;;;;5043624;28;19920;-78
2022/10/08 09:11:48;;;;;;;;;;;14.00;83.70;;;;;;5033816;28;19916;-77
2022/10/08 09:14:25;;;;;;;;;;;14.10;83.60;;;;;;5052310;28;19912;-78
2022/10/08 09:16:51;;;;;;;;;;;14.10;82.80;;;;;;5034010;28;19970;-78
2022/10/08 09:19:16;;;;;;;;;;;14.00;83.50;;;;;;5051775;28;20334;-78
2022/10/08 09:21:42;;;;;;;;;;;13.90;84.00;;;;;;5053101;28;19908;-79
2022/10/08 09:24:08;;;;;;;;;;;14.00;83.10;;;;;;5035795;28;19921;-79
2022/10/08 09:26:34;;;;;;;;;;;13.90;82.90;;;;;;5053694;28;20407;-79
2022/10/08 09:29:00;;;;;;;;;;;13.80;83.00;;;;;;5053254;28;19913;-79
2022/10/08 09:31:31;;;;;;;;;;;13.90;82.80;;;;;;5053513;28;19916;-79
2022/10/08 09:33:56;;;;;;;;;;;13.80;83.20;;;;;;5054270;28;19909;-79
2022/10/08 09:36:29;;;;;;;;;;;13.90;82.50;;;;;;5032073;28;19920;-79
2022/10/08 09:38:58;;;;;;;;;;;13.80;83.10;;;;;;5043242;28;19923;-79
2022/10/08 09:41:27;;;;;;;;;;;13.90;82.10;;;;;;5025961;28;19920;-79
2022/10/08 09:44:04;;;;;;;;;;;13.90;82.60;;;;;;5028729;28;19971;-80
2022/10/08 09:46:30;;;;;;;;;;;13.90;82.60;;;;;;5054334;28;19908;-79
2022/10/08 09:49:01;;;;;;;;;;;14.10;81.20;;;;;;5026165;28;19913;-79
2022/10/08 09:51:26;;;;;;;;;;;14.20;80.60;;;;;;5041170;28;19948;-79
2022/10/08 09:53:57;;;;;;;;;;;14.30;80.00;;;;;;5061950;28;20285;-79
2022/10/08 09:56:26;;;;;;;;;;;14.50;79.30;;;;;;5039104;28;19948;-79
2022/10/08 09:58:58;;;;;;;;;;;14.70;78.20;;;;;;5036686;28;19973;-79
2022/10/08 10:01:24;;;;;;;;;;;14.80;77.70;;;;;;5054897;28;19936;-80
2022/10/08 10:03:52;;;;;;;;;;;14.80;75.70;;;;;;5056364;28;20380;-79
2022/10/08 10:06:44;;;;;;;;;;;14.80;75.20;;;;;;5054661;28;20376;-79
2022/10/08 10:09:10;;;;;;;;;;;14.90;73.80;;;;;;5031553;28;20010;-79
2022/10/08 10:11:35;;;;;;;;;;;15.00;74.10;;;;;;5035938;28;20319;-78
2022/10/08 10:14:13;;;;;;;;;;;14.90;74.70;;;;;;5050230;28;20356;-78
2022/10/08 10:16:40;;;;;;;;;;;14.90;73.20;;;;;;5050321;28;19913;-79
2022/10/08 10:19:12;;;;;;;;;;;14.80;74.50;;;;;;5052336;28;20303;-78
2022/10/08 10:21:38;;;;;;;;;;;14.80;73.90;;;;;;5053521;28;19972;-78
2022/10/08 10:24:03;;;;;;;;;;;14.80;74.20;;;;;;5036486;28;19988;-83
2022/10/08 10:26:32;;;;;;;;;;;14.70;73.40;;;;;;5021240;28;19909;-82
2022/10/08 10:29:07;;;;;;;;;;;14.80;72.50;;;;;;5031730;28;19916;-84
2022/10/08 10:31:35;;;;;;;;;;;14.80;71.10;;;;;;5050727;28;19917;-85
2022/10/08 10:34:04;;;;;;;;;;;14.70;70.80;;;;;;5034386;28;19958;-83
2022/10/08 10:36:31;;;;;;;;;;;14.60;71.50;;;;;;5056945;28;20441;-84
2022/10/08 10:39:16;;;;;;;;;;;14.50;71.10;;;;;;5036749;28;19944;-86
2022/10/08 10:41:45;;;;;;;;;;;14.50;70.80;;;;;;5026719;28;19919;-82
2022/10/08 10:44:25;;;;;;;;;;;14.40;70.90;;;;;;5024767;28;19913;-85
2022/10/08 10:46:56;;;;;;;;;;;14.50;70.90;;;;;;5024486;28;19921;-83
2022/10/08 10:49:23;;;;;;;;;;;14.40;71.70;;;;;;5039126;28;20017;-83
2022/10/08 10:51:58;;;;;;;;;;;14.30;72.60;;;;;;5042312;28;19913;-83
2022/10/08 10:57:29;;;;;;;;;;;14.30;73.90;;;;;;5019374;28;19932;-77
2022/10/08 11:00:05;;;;;;;;;;;14.40;74.30;;;;;;4999566;28;19950;-78
2022/10/08 11:02:52;;;;;;;;;;;14.40;73.50;;;;;;5013877;28;19917;-77
2022/10/08 11:05:22;;;;;;;;;;;14.50;73.40;;;;;;5018582;28;19953;-77
2022/10/08 11:08:06;;;;;;;;;;;14.60;72.90;;;;;;5014684;28;19924;-77
2022/10/08 11:10:41;;;;;;;;;;;14.90;72.30;;;;;;5013708;28;19976;-77
2022/10/08 11:13:16;;;;;;;;;;;15.20;70.70;;;;;;5022279;28;19910;-78
2022/10/08 11:15:49;;;;;;;;;;;15.30;70.00;;;;;;5006615;28;19914;-77
2022/10/08 11:18:28;;;;;;;;;;;15.40;68.80;;;;;;5013666;28;19936;-77
2022/10/08 11:20:57;;;;;;;;;;;15.60;68.40;;;;;;5019987;28;19909;-78
2022/10/08 11:23:29;;;;;;;;;;;15.60;67.80;;;;;;5014381;28;19949;-77
2022/10/08 11:25:57;;;;;;;;;;;15.60;66.80;;;;;;5017128;28;19918;-78
2022/10/08 11:28:41;;;;;;;;;;;15.80;65.40;;;;;;5025298;28;19913;-77
2022/10/08 11:31:12;;;;;;;;;;;16.00;63.50;;;;;;5013013;28;19925;-78
2022/10/08 11:33:38;;;;;;;;;;;16.20;63.70;;;;;;5019391;28;19935;-77
2022/10/08 11:36:13;;;;;;;;;;;16.30;62.30;;;;;;5001544;28;20224;-77
2022/10/08 11:38:50;;;;;;;;;;;16.20;61.20;;;;;;5028760;28;19913;-76
2022/10/08 11:41:18;;;;;;;;;;;16.10;59.90;;;;;;5027538;28;19960;-79
2022/10/08 11:43:44;;;;;;;;;;;16.00;58.70;;;;;;5008458;28;19941;-77
2022/10/08 11:46:24;;;;;;;;;;;15.80;59.90;;;;;;5013701;28;19917;-77
2022/10/08 11:48:50;;;;;;;;;;;15.80;60.10;;;;;;4993822;28;19913;-75
2022/10/08 11:51:18;;;;;;;;;;;15.80;60.30;;;;;;5012143;28;19932;-76
2022/10/08 11:54:02;;;;;;;;;;;15.90;61.30;;;;;;5012023;28;19913;-76
2022/10/08 11:56:28;;;;;;;;;;;16.20;60.50;;;;;;5003894;28;19917;-78
2022/10/08 11:58:56;;;;;;;;;;;16.50;58.70;;;;;;5018375;28;19920;-78
2022/10/08 12:01:22;;;;;;;;;;;16.70;59.30;;;;;;5006990;28;19909;-78
2022/10/08 12:04:06;;;;;;;;;;;16.60;58.90;;;;;;5020195;28;19914;-77
2022/10/08 12:06:34;;;;;;;;;;;16.60;58.90;;;;;;4989452;28;19909;-78
2022/10/08 12:09:06;;;;;;;;;;;16.60;58.70;;;;;;5003513;28;19984;-78
2022/10/08 12:11:40;;;;;;;;;;;16.60;57.70;;;;;;5020417;28;19910;-77
2022/10/08 12:14:09;;;;;;;;;;;16.40;58.50;;;;;;5027326;28;19937;-78
2022/10/08 12:16:57;;;;;;;;;;;16.30;60.20;;;;;;5007522;28;19965;-81
2022/10/08 12:19:40;;;;;;;;;;;16.40;60.10;;;;;;5021553;28;19959;-78
2022/10/08 12:22:09;;;;;;;;;;;16.30;60.00;;;;;;4997700;28;19910;-78
2022/10/08 12:24:37;;;;;;;;;;;16.30;57.70;;;;;;4995603;28;19910;-77
2022/10/08 12:27:15;;;;;;;;;;;16.10;57.50;;;;;;4998783;28;19918;-78
2022/10/08 12:29:56;;;;;;;;;;;16.00;57.30;;;;;;4983759;28;19949;-77
2022/10/08 12:32:23;;;;;;;;;;;15.90;55.50;;;;;;5017093;28;19926;-77
2022/10/08 12:34:48;;;;;;;;;;;15.80;55.90;;;;;;5014302;28;19909;-79
2022/10/08 12:37:25;;;;;;;;;;;15.80;54.70;;;;;;5023775;28;19909;-78
2022/10/08 12:39:52;;;;;;;;;;;15.80;54.40;;;;;;5023215;28;19918;-78
2022/10/08 12:42:19;;;;;;;;;;;15.90;55.30;;;;;;5013235;28;19921;-77
2022/10/08 12:45:04;;;;;;;;;;;16.00;55.40;;;;;;5014287;28;20001;-79
2022/10/08 12:47:37;;;;;;;;;;;16.10;55.40;;;;;;5014814;28;19918;-79
2022/10/08 12:50:14;;;;;;;;;;;16.20;55.00;;;;;;5013068;28;20390;-79
2022/10/08 12:52:43;;;;;;;;;;;16.20;55.00;;;;;;5000505;28;20212;-79
2022/10/08 12:55:16;;;;;;;;;;;16.30;55.50;;;;;;5015062;28;19925;-80
2022/10/08 12:57:42;;;;;;;;;;;16.40;54.50;;;;;;5022633;28;19913;-78
2022/10/08 13:00:10;;;;;;;;;;;16.40;56.10;;;;;;5021739;28;19909;-80
2022/10/08 13:02:38;;;;;;;;;;;16.50;56.10;;;;;;5025689;28;19972;-80
2022/10/08 13:05:05;;;;;;;;;;;16.50;56.80;;;;;;5006072;28;19925;-78
2022/10/08 13:07:31;;;;;;;;;;;16.50;55.90;;;;;;5006493;28;20018;-79
2022/10/08 13:10:01;;;;;;;;;;;16.40;56.40;;;;;;5025780;28;19914;-79
2022/10/08 13:12:27;;;;;;;;;;;16.30;56.40;;;;;;5023650;28;19924;-79
2022/10/08 13:15:07;;;;;;;;;;;16.10;57.50;;;;;;5024174;28;19909;-80
2022/10/08 13:17:33;;;;;;;;;;;16.10;57.60;;;;;;5024116;28;20024;-79
2022/10/08 13:20:04;;;;;;;;;;;16.20;57.70;;;;;;5024013;28;19925;-79
2022/10/08 13:22:29;;;;;;;;;;;16.20;56.50;;;;;;4998718;28;19914;-79
2022/10/08 13:24:55;;;;;;;;;;;16.10;57.10;;;;;;5018617;28;19989;-77
2022/10/08 13:27:22;;;;;;;;;;;16.00;55.30;;;;;;5023726;28;19985;-79
2022/10/08 13:29:47;;;;;;;;;;;16.00;55.80;;;;;;5022227;28;20001;-80
2022/10/08 13:32:13;;;;;;;;;;;16.10;55.80;;;;;;5018200;28;19980;-79
2022/10/08 13:34:40;;;;;;;;;;;16.00;55.60;;;;;;5019514;28;20065;-78
2022/10/08 13:37:08;;;;;;;;;;;16.00;56.70;;;;;;5022291;28;19914;-78
2022/10/08 13:39:36;;;;;;;;;;;15.90;56.80;;;;;;5001136;28;20365;-79
2022/10/08 13:42:03;;;;;;;;;;;15.90;57.50;;;;;;5017185;28;19988;-78
2022/10/08 13:44:28;;;;;;;;;;;15.80;59.70;;;;;;5012253;28;19936;-78
2022/10/08 13:46:54;;;;;;;;;;;15.70;60.90;;;;;;5020371;28;20570;-78
2022/10/08 13:49:26;;;;;;;;;;;15.90;59.90;;;;;;4997882;28;19937;-79
2022/10/08 13:51:52;;;;;;;;;;;15.90;60.70;;;;;;4974529;28;19913;-77
2022/10/08 13:54:23;;;;;;;;;;;15.90;60.50;;;;;;4985965;28;19913;-77
2022/10/08 13:56:49;;;;;;;;;;;15.80;61.30;;;;;;5008779;28;19917;-76
2022/10/08 13:59:15;;;;;;;;;;;15.90;61.10;;;;;;4998747;28;19914;-78
2022/10/08 14:01:40;;;;;;;;;;;15.90;60.50;;;;;;4985506;28;19925;-75
2022/10/08 14:04:06;;;;;;;;;;;16.10;60.00;;;;;;4991942;28;19910;-76
2022/10/08 14:06:31;;;;;;;;;;;15.90;60.20;;;;;;4989816;28;20005;-76
2022/10/08 14:08:57;;;;;;;;;;;15.70;60.10;;;;;;4990485;28;19924;-77
2022/10/08 14:11:23;;;;;;;;;;;15.70;60.90;;;;;;4971068;28;19917;-75
2022/10/08 14:13:49;;;;;;;;;;;15.70;60.50;;;;;;5007578;28;19917;-77
2022/10/08 14:16:14;;;;;;;;;;;15.70;59.40;;;;;;5010515;28;19920;-77
2022/10/08 14:18:39;;;;;;;;;;;15.60;60.00;;;;;;5011811;28;19913;-76
2022/10/08 14:21:05;;;;;;;;;;;15.70;59.40;;;;;;5011832;28;20321;-77
2022/10/08 14:23:31;;;;;;;;;;;15.50;61.30;;;;;;5013778;28;20008;-76
2022/10/08 14:25:57;;;;;;;;;;;15.50;60.20;;;;;;5012721;28;20374;-77
2022/10/08 14:28:22;;;;;;;;;;;15.50;60.20;;;;;;4998989;28;19925;-77